Time;durP1;ratioP1;P1;durP2;ratioP2;P2;SDS_P1;SDS_P2;PMS_P1;PMS_P2;Temp;Humidity;BMP_temperature;BMP_pressure;BME280_temperature;BME280_humidity;BME280_pressure;Samples;Min_cycle;Max_cycle;Signal;HPM_P1;HPM_P2
2022/10/26 00:01:24;;;;;;;8.00;3.70;;;;;;;11.07;86.44;97008.49;105207;1304;22461;-77
2022/10/26 00:03:59;;;;;;;8.20;4.20;;;;;;;11.07;86.57;97011.25;105216;1304;25004;-78
2022/10/26 00:06:30;;;;;;;7.20;4.10;;;;;;;11.07;86.62;97014.01;105152;1294;22540;-78
2022/10/26 00:09:02;;;;;;;6.80;4.00;;;;;;;11.09;86.72;97013.09;105151;1291;22470;-77
2022/10/26 00:11:33;;;;;;;7.10;3.90;;;;;;;11.11;86.79;97015.05;105168;1299;22500;-77
2022/10/26 00:14:04;;;;;;;6.70;4.50;;;;;;;11.12;86.84;97016.60;105180;1306;23472;-77
2022/10/26 00:16:38;;;;;;;5.70;3.50;;;;;;;11.15;86.83;97017.23;105113;1297;22462;-78
2022/10/26 00:19:09;;;;;;;6.30;3.80;;;;;;;11.16;86.86;97022.05;105172;1306;22949;-78
2022/10/26 00:21:40;;;;;;;7.80;3.50;;;;;;;11.16;86.90;97025.60;105149;1306;22460;-78
2022/10/26 00:24:13;;;;;;;6.00;4.10;;;;;;;11.14;86.97;97022.65;105183;1304;26124;-77
2022/10/26 00:26:44;;;;;;;6.30;4.10;;;;;;;11.10;87.18;97025.40;105137;1299;26528;-77
2022/10/26 00:29:17;;;;;;;7.50;3.90;;;;;;;11.09;87.27;97026.79;105208;1303;22650;-78
2022/10/26 00:31:48;;;;;;;7.10;4.00;;;;;;;11.08;87.39;97024.61;105145;1304;22486;-77
2022/10/26 00:34:19;;;;;;;5.40;3.40;;;;;;;11.11;87.52;97029.48;105157;1305;22476;-77
2022/10/26 00:36:50;;;;;;;6.20;3.80;;;;;;;11.12;87.57;97024.61;105170;1281;25370;-77
2022/10/26 00:39:22;;;;;;;5.50;3.50;;;;;;;11.15;87.55;97027.36;105153;1305;22486;-77
2022/10/26 00:41:53;;;;;;;7.00;3.80;;;;;;;11.17;87.56;97029.85;105201;1305;22509;-77
2022/10/26 00:45:00;;;;;;;6.60;3.90;;;;;;;11.20;87.57;97029.03;105165;1305;22553;-77
2022/10/26 00:47:37;;;;;;;7.40;4.00;;;;;;;11.22;87.52;97020.32;105085;1305;26400;-77
2022/10/26 00:50:12;;;;;;;6.60;3.90;;;;;;;11.24;87.40;97025.88;105197;1295;25279;-77
2022/10/26 00:52:43;;;;;;;5.90;3.60;;;;;;;11.25;87.42;97024.38;105137;1304;26539;-77
2022/10/26 00:55:15;;;;;;;10.40;4.60;;;;;;;11.26;87.35;97022.48;105111;1305;22445;-77
2022/10/26 00:57:46;;;;;;;5.50;3.50;;;;;;;11.27;87.30;97022.96;105056;1294;25410;-77
2022/10/26 01:00:18;;;;;;;6.50;3.90;;;;;;;11.22;87.23;97023.92;105105;1303;22597;-77
2022/10/26 01:02:52;;;;;;;6.00;3.70;;;;;;;11.15;87.32;97025.55;105072;1296;22472;-77
2022/10/26 01:05:24;;;;;;;9.00;4.00;;;;;;;11.08;87.46;97027.33;105102;1306;22495;-78
2022/10/26 01:07:56;;;;;;;6.00;3.50;;;;;;;11.03;87.58;97029.58;105017;1306;32858;-78
2022/10/26 01:10:30;;;;;;;6.60;3.60;;;;;;;11.03;87.63;97033.40;105093;1283;22481;-78
2022/10/26 01:13:05;;;;;;;7.30;3.40;;;;;;;11.00;87.75;97036.86;105109;1304;22483;-77
2022/10/26 01:15:47;;;;;;;7.50;3.30;;;;;;;10.92;87.73;97035.49;105069;1306;25357;-78
2022/10/26 01:18:26;;;;;;;6.90;3.50;;;;;;;10.81;87.90;97037.11;105164;1306;22455;-77
2022/10/26 01:21:30;;;;;;;6.00;3.90;;;;;;;10.72;88.18;97040.89;105174;1304;22471;-78
2022/10/26 01:24:27;;;;;;;7.20;3.80;;;;;;;10.64;88.51;97043.45;105186;1304;22505;-78
2022/10/26 01:27:13;;;;;;;6.30;3.00;;;;;;;10.62;88.70;97040.02;105097;1304;22746;-78
2022/10/26 01:30:02;;;;;;;6.00;3.40;;;;;;;10.62;88.84;97039.85;105190;1282;22455;-78
2022/10/26 01:32:40;;;;;;;5.70;3.20;;;;;;;10.66;88.98;97040.89;105002;1293;276397;-78
2022/10/26 01:35:16;;;;;;;4.70;3.30;;;;;;;10.72;89.10;97038.89;105185;1304;22459;-78
2022/10/26 01:37:54;;;;;;;7.00;3.20;;;;;;;10.73;88.99;97031.83;105071;1305;22476;-78
2022/10/26 01:40:33;;;;;;;7.00;3.10;;;;;;;10.79;89.00;97030.38;105096;1306;24298;-78
2022/10/26 01:43:08;;;;;;;6.20;2.50;;;;;;;10.83;89.01;97025.86;105086;1306;22583;-78
2022/10/26 01:45:44;;;;;;;5.00;3.10;;;;;;;10.85;88.84;97025.81;105047;1304;23275;-78
2022/10/26 01:48:19;;;;;;;6.60;3.10;;;;;;;10.84;88.69;97023.68;105108;1298;22517;-78
2022/10/26 01:50:53;;;;;;;7.00;3.20;;;;;;;10.83;88.68;97025.16;105089;1306;22914;-78
2022/10/26 01:53:26;;;;;;;5.00;2.70;;;;;;;10.81;88.64;97028.40;105083;1282;24395;-78
2022/10/26 01:55:58;;;;;;;5.50;3.10;;;;;;;10.77;88.66;97031.88;105022;1298;28393;-78
2022/10/26 01:58:54;;;;;;;4.30;3.00;;;;;;;10.73;88.78;97029.98;105109;1294;23758;-78
2022/10/26 02:01:56;;;;;;;4.40;3.00;;;;;;;10.74;88.99;97028.70;105071;1292;25316;-77
2022/10/26 02:04:39;;;;;;;4.40;2.90;;;;;;;10.73;88.71;97031.67;105076;1306;22492;-78
2022/10/26 02:07:19;;;;;;;2.90;2.40;;;;;;;10.66;88.79;97035.60;105045;1306;24484;-77
2022/10/26 02:09:59;;;;;;;7.20;3.40;;;;;;;10.65;89.00;97038.52;105107;1306;22460;-77
2022/10/26 02:12:38;;;;;;;6.20;3.30;;;;;;;10.67;89.14;97037.08;105106;1291;22467;-77
2022/10/26 02:15:17;;;;;;;6.10;3.00;;;;;;;10.69;89.28;97041.42;105055;1305;23819;-77
2022/10/26 02:17:57;;;;;;;4.80;3.00;;;;;;;10.68;89.27;97042.53;105135;1304;22555;-77
2022/10/26 02:20:32;;;;;;;6.10;3.10;;;;;;;10.66;89.22;97037.55;105183;1304;22519;-77
2022/10/26 02:23:07;;;;;;;5.50;3.00;;;;;;;10.69;89.31;97040.14;105183;1300;22473;-77
2022/10/26 02:25:44;;;;;;;5.80;3.20;;;;;;;10.71;89.30;97038.63;105166;1305;25348;-77
2022/10/26 02:28:22;;;;;;;6.30;3.30;;;;;;;10.70;89.18;97039.52;105162;1297;22597;-77
2022/10/26 02:30:58;;;;;;;5.20;3.30;;;;;;;10.64;89.20;97039.36;105205;1289;25465;-77
2022/10/26 02:33:33;;;;;;;5.80;3.40;;;;;;;10.58;89.38;97043.05;105125;1306;22482;-77
2022/10/26 02:36:09;;;;;;;7.20;3.30;;;;;;;10.55;89.59;97042.98;105194;1297;22451;-77
2022/10/26 02:38:42;;;;;;;5.90;3.50;;;;;;;10.58;89.85;97044.69;105211;1304;22726;-77
2022/10/26 02:41:19;;;;;;;7.40;3.00;;;;;;;10.64;89.86;97045.56;105212;1290;25247;-77
2022/10/26 02:43:59;;;;;;;5.50;3.20;;;;;;;10.67;89.77;97044.23;105114;1287;22458;-77
2022/10/26 02:46:31;;;;;;;6.00;3.50;;;;;;;10.65;89.67;97042.23;105150;1291;22464;-77
2022/10/26 02:49:05;;;;;;;6.70;3.60;;;;;;;10.63;89.71;97039.11;105145;1306;22783;-77
2022/10/26 02:51:40;;;;;;;5.50;3.20;;;;;;;10.63;89.75;97038.73;105166;1282;22475;-77
2022/10/26 02:54:19;;;;;;;5.50;2.90;;;;;;;10.64;89.73;97035.55;105146;1303;25260;-77
2022/10/26 02:56:56;;;;;;;7.20;2.90;;;;;;;10.63;89.75;97032.95;105072;1298;22526;-77
2022/10/26 02:59:33;;;;;;;4.90;2.80;;;;;;;10.66;89.83;97036.45;105092;1291;22626;-77
2022/10/26 03:02:07;;;;;;;4.50;2.50;;;;;;;10.72;89.79;97036.87;105028;1306;22503;-77
2022/10/26 03:04:38;;;;;;;4.50;2.80;;;;;;;10.68;89.68;97040.99;105110;1298;22491;-77
2022/10/26 03:07:09;;;;;;;5.00;2.70;;;;;;;10.66;89.68;97047.48;105088;1294;28099;-77
2022/10/26 03:09:40;;;;;;;7.00;2.90;;;;;;;10.64;89.66;97047.74;105147;1306;22480;-77
2022/10/26 03:12:11;;;;;;;3.80;2.70;;;;;;;10.64;89.68;97048.96;105192;1303;23320;-77
2022/10/26 03:14:42;;;;;;;4.20;2.60;;;;;;;10.63;89.63;97053.63;105182;1305;23286;-77
2022/10/26 03:17:13;;;;;;;5.90;2.80;;;;;;;10.55;89.40;97052.27;105081;1304;51963;-77
2022/10/26 03:19:44;;;;;;;5.40;2.60;;;;;;;10.46;89.37;97055.40;105179;1304;22470;-77
2022/10/26 03:22:16;;;;;;;3.60;2.50;;;;;;;10.35;89.42;97054.23;105210;1284;25386;-77
2022/10/26 03:24:47;;;;;;;5.00;2.30;;;;;;;10.25;89.84;97048.14;105167;1306;22486;-77
2022/10/26 03:27:18;;;;;;;4.80;2.40;;;;;;;10.24;90.21;97052.27;105077;1282;26541;-77
2022/10/26 03:29:49;;;;;;;5.90;2.50;;;;;;;10.21;90.18;97050.71;105131;1306;22526;-77
2022/10/26 03:32:20;;;;;;;5.10;2.90;;;;;;;10.14;90.39;97054.27;105059;1306;25325;-77
2022/10/26 03:34:51;;;;;;;5.10;2.70;;;;;;;10.08;90.52;97052.70;105099;1290;22473;-77
2022/10/26 03:37:23;;;;;;;4.20;2.80;;;;;;;10.05;90.78;97059.97;105033;1302;28162;-77
2022/10/26 03:39:56;;;;;;;5.50;2.50;;;;;;;10.06;90.83;97059.70;105089;1282;22500;-77
2022/10/26 03:42:29;;;;;;;4.50;2.80;;;;;;;10.07;91.01;97063.67;105119;1300;25085;-77
2022/10/26 03:45:01;;;;;;;5.60;2.90;;;;;;;10.08;91.23;97065.69;105070;1299;22487;-77
2022/10/26 03:47:32;;;;;;;5.50;3.20;;;;;;;10.11;91.37;97064.25;105063;1306;22598;-77
2022/10/26 03:50:03;;;;;;;5.70;2.70;;;;;;;10.13;91.46;97058.91;105113;1277;25561;-77
2022/10/26 03:52:34;;;;;;;6.40;2.80;;;;;;;10.09;91.26;97063.73;105119;1280;24263;-77
2022/10/26 03:55:07;;;;;;;6.80;2.80;;;;;;;10.03;91.25;97062.94;105082;1306;25010;-77
2022/10/26 03:57:42;;;;;;;4.50;2.90;;;;;;;9.96;91.37;97064.08;105166;1282;25285;-77
2022/10/26 04:00:16;;;;;;;5.40;2.70;;;;;;;9.90;91.47;97058.84;105199;1305;22488;-77
2022/10/26 04:02:54;;;;;;;4.90;2.60;;;;;;;9.80;91.52;97054.68;105214;1288;22596;-77
2022/10/26 04:05:26;;;;;;;4.90;3.20;;;;;;;9.72;91.87;97056.67;105186;1299;24267;-77
2022/10/26 04:07:59;;;;;;;4.60;2.70;;;;;;;9.66;92.18;97058.35;105112;1306;35789;-77
2022/10/26 04:10:30;;;;;;;6.40;3.10;;;;;;;9.65;92.50;97058.61;105078;1303;22538;-77
2022/10/26 04:13:02;;;;;;;5.10;3.10;;;;;;;9.66;92.69;97059.73;105084;1305;22452;-77
2022/10/26 04:15:34;;;;;;;5.00;2.90;;;;;;;9.66;92.91;97060.36;105060;1284;24042;-77
2022/10/26 04:18:14;;;;;;;6.20;2.70;;;;;;;9.65;92.85;97063.75;105114;1289;22474;-77
2022/10/26 04:20:46;;;;;;;3.70;2.50;;;;;;;9.62;92.89;97061.69;105135;1290;22503;-77
2022/10/26 04:23:20;;;;;;;4.50;2.90;;;;;;;9.56;92.85;97059.75;105133;1304;22468;-77
2022/10/26 04:25:52;;;;;;;7.60;2.70;;;;;;;9.54;92.98;97060.48;105038;1306;26064;-77
2022/10/26 04:28:23;;;;;;;4.30;2.30;;;;;;;9.60;93.37;97058.88;105082;1298;23008;-77
2022/10/26 04:30:54;;;;;;;4.10;2.30;;;;;;;9.65;93.44;97059.30;105087;1305;22972;-77
2022/10/26 04:33:25;;;;;;;4.60;2.50;;;;;;;9.68;93.42;97060.09;105111;1306;22465;-77
2022/10/26 04:36:02;;;;;;;4.60;2.30;;;;;;;9.63;93.08;97057.88;105098;1289;25059;-77
2022/10/26 04:38:33;;;;;;;4.40;2.30;;;;;;;9.52;93.11;97056.67;105186;1304;22630;-77
2022/10/26 04:41:05;;;;;;;5.70;2.40;;;;;;;9.41;93.27;97056.89;105203;1282;22465;-77
2022/10/26 04:43:38;;;;;;;5.00;2.50;;;;;;;9.45;94.10;97057.83;105182;1304;23784;-77
2022/10/26 04:46:12;;;;;;;3.70;2.20;;;;;;;9.48;94.18;97055.92;105198;1303;23829;-77
2022/10/26 04:48:43;;;;;;;5.10;2.70;;;;;;;9.47;94.22;97056.77;105191;1282;25383;-77
2022/10/26 04:51:15;;;;;;;6.40;3.10;;;;;;;9.47;94.45;97059.79;105201;1304;22489;-77
2022/10/26 04:53:46;;;;;;;4.70;2.90;;;;;;;9.51;94.52;97057.56;105186;1304;22774;-77
2022/10/26 04:56:17;;;;;;;5.60;2.50;;;;;;;9.51;94.50;97061.48;105117;1296;22477;-77
2022/10/26 04:58:53;;;;;;;5.00;2.80;;;;;;;9.56;94.58;97063.13;105138;1288;24268;-77
2022/10/26 05:01:24;;;;;;;6.40;2.40;;;;;;;9.52;94.52;97057.46;105146;1303;24267;-77
2022/10/26 05:03:55;;;;;;;4.00;2.30;;;;;;;9.55;94.59;97056.35;105190;1282;23821;-77
2022/10/26 05:06:26;;;;;;;4.70;2.50;;;;;;;9.53;94.56;97055.08;105129;1281;23924;-76
2022/10/26 05:08:58;;;;;;;4.90;3.00;;;;;;;9.47;94.29;97054.02;105204;1288;23965;-76
2022/10/26 05:11:29;;;;;;;4.20;2.20;;;;;;;9.41;94.64;97053.03;105170;1284;24288;-77
2022/10/26 05:14:00;;;;;;;5.70;2.20;;;;;;;9.41;94.87;97053.88;105168;1284;22550;-76
2022/10/26 05:16:31;;;;;;;4.90;2.80;;;;;;;9.32;94.68;97061.11;105131;1298;22658;-76
2022/10/26 05:19:02;;;;;;;3.50;2.20;;;;;;;9.28;95.10;97059.76;105185;1304;22479;-76
2022/10/26 05:21:34;;;;;;;4.70;2.50;;;;;;;9.20;95.08;97064.65;105200;1304;26554;-76
2022/10/26 05:24:05;;;;;;;4.30;2.00;;;;;;;9.12;95.20;97068.40;105214;1302;22490;-76
2022/10/26 05:26:36;;;;;;;4.60;2.50;;;;;;;9.09;95.66;97072.69;105155;1305;22635;-77
2022/10/26 05:29:08;;;;;;;4.70;2.30;;;;;;;9.13;96.11;97073.66;105224;1291;22737;-76
2022/10/26 05:31:41;;;;;;;5.20;2.60;;;;;;;9.24;96.52;97074.19;105184;1288;23861;-76
2022/10/26 05:34:12;;;;;;;4.20;2.40;;;;;;;9.37;96.59;97081.86;105227;1284;22473;-76
2022/10/26 05:36:44;;;;;;;4.00;2.30;;;;;;;9.45;96.54;97080.24;105179;1304;22490;-76
2022/10/26 05:39:17;;;;;;;4.80;2.50;;;;;;;9.55;96.35;97082.34;105211;1304;22522;-76
2022/10/26 05:41:48;;;;;;;4.30;2.60;;;;;;;9.62;96.30;97084.87;105211;1288;25373;-76
2022/10/26 05:44:19;;;;;;;3.40;2.30;;;;;;;9.91;96.23;97084.42;105176;1290;22490;-77
2022/10/26 05:46:50;;;;;;;4.30;2.20;;;;;;;10.18;95.79;97089.45;105126;1306;25122;-76
2022/10/26 05:49:21;;;;;;;2.70;2.20;;;;;;;10.49;95.19;97090.77;105170;1288;25269;-76
2022/10/26 05:51:52;;;;;;;5.60;2.20;;;;;;;10.79;94.28;97093.97;105186;1296;22563;-77
2022/10/26 05:54:23;;;;;;;5.30;2.40;;;;;;;11.11;93.61;97094.45;105229;1304;22476;-77
2022/10/26 05:56:56;;;;;;;4.90;2.20;;;;;;;11.52;92.80;97089.80;105173;1306;22641;-77
2022/10/26 05:59:28;;;;;;;3.20;2.10;;;;;;;11.92;91.88;97092.50;105231;1304;22916;-77
2022/10/26 06:02:11;;;;;;;5.20;1.60;;;;;;;12.33;90.85;97093.20;105241;1298;22879;-77
2022/10/26 06:04:47;;;;;;;5.60;2.00;;;;;;;12.74;89.33;97092.55;105202;1289;22565;-77
2022/10/26 06:07:20;;;;;;;5.00;2.20;;;;;;;13.01;87.98;97097.41;105165;1281;22514;-77
2022/10/26 06:09:52;;;;;;;4.70;1.80;;;;;;;13.20;86.77;97095.52;105212;1300;22506;-77
2022/10/26 06:12:26;;;;;;;5.00;1.80;;;;;;;13.42;85.72;97097.32;105211;1298;22505;-77
2022/10/26 06:14:59;;;;;;;3.90;1.40;;;;;;;13.67;84.43;97099.52;105192;1298;24256;-77
2022/10/26 06:17:43;;;;;;;4.80;1.90;;;;;;;13.86;83.14;97101.62;105116;1290;25367;-77
2022/10/26 06:20:41;;;;;;;3.10;1.50;;;;;;;14.12;81.84;97101.17;105041;1291;22505;-78
2022/10/26 06:23:40;;;;;;;3.40;1.70;;;;;;;14.33;80.12;97108.81;105071;1306;22638;-78
2022/10/26 06:26:21;;;;;;;2.10;1.60;;;;;;;14.28;79.15;97108.14;104993;1298;22478;-78
2022/10/26 06:29:02;;;;;;;4.40;1.50;;;;;;;14.56;78.99;97112.11;105181;1298;23085;-78
2022/10/26 06:31:33;;;;;;;2.20;1.60;;;;;;;14.83;78.09;97114.03;105254;1304;22469;-78
2022/10/26 06:34:06;;;;;;;1.80;1.40;;;;;;;15.15;77.79;97115.66;105234;1305;22482;-78
2022/10/26 06:36:39;;;;;;;2.10;1.40;;;;;;;15.48;76.29;97114.02;105158;1281;22544;-78
2022/10/26 06:39:12;;;;;;;2.60;1.60;;;;;;;15.72;75.93;97118.45;105187;1282;26542;-78
2022/10/26 06:41:44;;;;;;;2.80;1.50;;;;;;;16.22;76.06;97116.06;105220;1298;22658;-78
2022/10/26 06:44:24;;;;;;;2.50;1.30;;;;;;;17.14;75.60;97116.52;105217;1281;22464;-79
2022/10/26 06:47:05;;;;;;;2.50;1.40;;;;;;;18.04;74.10;97115.88;105103;1303;22460;-78
2022/10/26 06:49:41;;;;;;;4.90;1.90;;;;;;;18.94;72.96;97122.55;105104;1284;22464;-78
2022/10/26 06:52:18;;;;;;;3.40;1.50;;;;;;;19.73;70.71;97123.55;105121;1291;22520;-79
2022/10/26 06:54:54;;;;;;;5.10;1.50;;;;;;;20.13;68.38;97118.35;105095;1306;22473;-79
2022/10/26 06:57:29;;;;;;;3.90;2.00;;;;;;;20.59;67.57;97118.53;105091;1306;22475;-79
2022/10/26 07:00:03;;;;;;;3.50;1.70;;;;;;;21.01;66.06;97124.39;105082;1284;22490;-79
2022/10/26 07:02:35;;;;;;;4.20;1.60;;;;;;;21.33;64.61;97123.98;105089;1299;22512;-79
2022/10/26 07:05:11;;;;;;;4.40;1.60;;;;;;;21.45;63.04;97128.76;105105;1281;22474;-79
2022/10/26 07:07:47;;;;;;;3.60;1.50;;;;;;;21.53;61.32;97129.07;105159;1284;22473;-79
2022/10/26 07:10:18;;;;;;;3.60;1.60;;;;;;;21.72;60.92;97129.93;105206;1304;22470;-79
2022/10/26 07:12:49;;;;;;;3.70;2.20;;;;;;;22.04;60.34;97129.71;105194;1300;25480;-79
2022/10/26 07:15:20;;;;;;;2.60;1.90;;;;;;;22.10;58.89;97131.96;105194;1303;22510;-79
2022/10/26 07:17:52;;;;;;;1.50;1.20;;;;;;;22.14;58.46;97133.26;105138;1288;25230;-79
2022/10/26 07:20:23;;;;;;;2.60;1.60;;;;;;;22.58;58.57;97136.40;105222;1304;22912;-79
2022/10/26 07:22:58;;;;;;;3.50;1.60;;;;;;;23.00;57.13;97135.94;105154;1306;22458;-79
2022/10/26 07:25:29;;;;;;;2.00;1.30;;;;;;;23.16;55.52;97135.97;105204;1281;26272;-79
2022/10/26 07:28:01;;;;;;;5.40;1.60;;;;;;;23.09;54.81;97135.36;105114;1306;24006;-79
2022/10/26 07:30:33;;;;;;;4.60;1.70;;;;;;;22.95;54.36;97136.59;105124;1298;22491;-79
2022/10/26 07:33:08;;;;;;;4.80;1.60;;;;;;;23.12;54.12;97136.60;105080;1306;22483;-79
2022/10/26 07:35:40;;;;;;;4.80;1.30;;;;;;;23.08;52.57;97134.47;105008;1291;26457;-79
2022/10/26 07:38:13;;;;;;;2.30;1.70;;;;;;;22.90;52.57;97135.83;105237;1304;22494;-79
2022/10/26 07:40:45;;;;;;;3.90;1.60;;;;;;;22.85;51.79;97135.30;105224;1291;22486;-79
2022/10/26 07:43:16;;;;;;;4.00;1.70;;;;;;;23.10;52.73;97137.54;105215;1301;24270;-80
2022/10/26 07:45:48;;;;;;;3.60;1.60;;;;;;;23.27;52.25;97140.52;105188;1298;27314;-79
2022/10/26 07:48:19;;;;;;;4.70;1.80;;;;;;;23.54;52.04;97138.67;105207;1306;22473;-80
2022/10/26 07:50:50;;;;;;;4.00;1.60;;;;;;;23.79;50.91;97134.55;105219;1282;23833;-80
2022/10/26 07:53:21;;;;;;;3.20;1.50;;;;;;;23.78;50.22;97137.84;105199;1298;22515;-80
2022/10/26 07:55:57;;;;;;;2.70;1.40;;;;;;;23.81;50.16;97135.77;105141;1304;22484;-80
2022/10/26 07:58:28;;;;;;;3.60;1.70;;;;;;;23.84;49.84;97134.84;105095;1304;22546;-80
2022/10/26 08:01:05;;;;;;;3.20;1.50;;;;;;;23.77;49.70;97136.98;105080;1284;22463;-80
2022/10/26 08:03:36;;;;;;;1.40;1.10;;;;;;;23.61;48.90;97140.09;105123;1306;23170;-80
2022/10/26 08:06:09;;;;;;;4.40;1.50;;;;;;;23.55;49.40;97136.29;105064;1285;22480;-80
2022/10/26 08:08:42;;;;;;;2.90;1.20;;;;;;;23.62;49.14;97140.18;105114;1306;22474;-80
2022/10/26 08:11:14;;;;;;;5.50;1.90;;;;;;;23.53;49.19;97141.58;105091;1306;22477;-80
2022/10/26 08:13:45;;;;;;;3.40;1.10;;;;;;;23.71;49.92;97140.72;105049;1306;25382;-80
2022/10/26 08:16:17;;;;;;;3.40;1.20;;;;;;;23.73;48.76;97136.13;105067;1306;24350;-80
2022/10/26 08:18:49;;;;;;;3.60;1.60;;;;;;;23.07;48.45;97132.89;105190;1291;26506;-80
2022/10/26 08:21:20;;;;;;;4.20;1.50;;;;;;;22.74;49.29;97133.67;105181;1306;22499;-80
2022/10/26 08:23:51;;;;;;;3.30;1.60;;;;;;;22.43;49.25;97129.27;105158;1306;22507;-80
2022/10/26 08:26:22;;;;;;;2.20;1.20;;;;;;;22.06;49.47;97130.70;105107;1298;24283;-80
2022/10/26 08:28:53;;;;;;;2.20;1.10;;;;;;;21.56;50.19;97130.42;105144;1306;22471;-80
2022/10/26 08:31:24;;;;;;;2.50;1.30;;;;;;;21.09;50.92;97131.08;105120;1304;22477;-80
2022/10/26 08:33:56;;;;;;;3.60;1.40;;;;;;;20.57;51.08;97133.85;105192;1281;23083;-80
2022/10/26 08:36:32;;;;;;;2.90;1.30;;;;;;;20.03;51.95;97136.98;105115;1305;23487;-80
2022/10/26 08:39:03;;;;;;;3.10;1.40;;;;;;;19.64;52.69;97132.91;105119;1304;23969;-80
2022/10/26 08:41:38;;;;;;;3.20;1.60;;;;;;;19.32;53.51;97139.59;105195;1297;22482;-79
2022/10/26 08:44:25;;;;;;;4.00;1.40;;;;;;;19.13;53.96;97139.70;105156;1304;22524;-80
2022/10/26 08:47:04;;;;;;;2.40;1.00;;;;;;;18.85;54.61;97133.38;105105;1281;23731;-79
2022/10/26 08:49:44;;;;;;;3.50;1.10;;;;;;;18.71;55.06;97133.29;105172;1304;22890;-80
2022/10/26 08:52:19;;;;;;;2.90;1.00;;;;;;;18.41;55.80;97132.32;105196;1281;26535;-80
2022/10/26 08:54:54;;;;;;;3.70;1.50;;;;;;;18.18;56.31;97134.97;105129;1298;23764;-80
2022/10/26 08:57:28;;;;;;;2.60;1.50;;;;;;;18.05;57.05;97131.55;105145;1296;22636;-80
2022/10/26 09:00:05;;;;;;;2.60;1.00;;;;;;;18.06;56.83;97130.84;105219;1282;23866;-80
2022/10/26 09:02:38;;;;;;;3.20;1.00;;;;;;;17.67;56.27;97132.11;105168;1294;25211;-80
2022/10/26 09:05:23;;;;;;;2.70;1.00;;;;;;;17.17;57.02;97136.00;105097;1291;22608;-80
2022/10/26 09:08:02;;;;;;;5.50;1.30;;;;;;;17.20;58.79;97136.58;104999;1298;27011;-80
2022/10/26 09:10:41;;;;;;;1.30;0.70;;;;;;;17.33;58.43;97137.91;105078;1284;25375;-80
2022/10/26 09:13:24;;;;;;;2.90;0.90;;;;;;;17.09;57.71;97140.17;105050;1297;25378;-81
2022/10/26 09:16:05;;;;;;;3.20;1.00;;;;;;;16.84;58.12;97139.96;105077;1305;22480;-80
2022/10/26 09:18:48;;;;;;;5.20;1.20;;;;;;;16.65;58.77;97141.04;105061;1284;24371;-81
2022/10/26 09:21:33;;;;;;;1.60;0.80;;;;;;;16.53;59.20;97136.48;105098;1302;24402;-81
2022/10/26 09:24:13;;;;;;;3.00;1.40;;;;;;;16.54;59.14;97134.11;105072;1305;22638;-81
2022/10/26 09:26:55;;;;;;;1.50;1.00;;;;;;;16.49;59.08;97140.08;105089;1298;22586;-80
2022/10/26 09:29:34;;;;;;;4.50;1.00;;;;;;;16.54;59.54;97138.77;105108;1304;22485;-80
2022/10/26 09:32:13;;;;;;;2.70;0.80;;;;;;;16.63;59.48;97136.30;105194;1295;22520;-81
2022/10/26 09:34:49;;;;;;;3.30;0.90;;;;;;;16.71;58.87;97136.71;105032;1281;22469;-80
2022/10/26 09:37:25;;;;;;;3.30;1.10;;;;;;;16.89;59.39;97138.45;105112;1298;26445;-81
2022/10/26 09:40:06;;;;;;;3.10;1.10;;;;;;;17.14;59.54;97137.34;105090;1304;22659;-80
2022/10/26 09:42:43;;;;;;;1.70;1.00;;;;;;;17.31;59.31;97136.58;105184;1298;26442;-80
2022/10/26 09:45:20;;;;;;;2.80;1.10;;;;;;;17.34;57.69;97136.44;105094;1305;25216;-81
2022/10/26 09:47:54;;;;;;;1.30;1.00;;;;;;;17.21;57.64;97135.02;105048;1304;22600;-80
2022/10/26 09:50:30;;;;;;;2.30;1.00;;;;;;;17.27;58.42;97137.25;105166;1281;22467;-80
2022/10/26 09:53:06;;;;;;;2.00;1.00;;;;;;;17.52;58.29;97137.17;105135;1289;22483;-80
2022/10/26 09:55:42;;;;;;;3.10;1.40;;;;;;;17.52;57.43;97137.67;105061;1290;28947;-80
2022/10/26 09:58:19;;;;;;;3.50;1.20;;;;;;;17.45;56.97;97140.80;105122;1290;22554;-80
2022/10/26 10:00:54;;;;;;;3.70;1.30;;;;;;;17.45;56.96;97142.30;105078;1306;25497;-81
2022/10/26 10:03:28;;;;;;;3.00;0.90;;;;;;;17.49;57.03;97138.61;105095;1284;25274;-80
2022/10/26 10:06:17;;;;;;;2.30;0.90;;;;;;;17.54;56.39;97136.45;105062;1288;25523;-80
2022/10/26 10:09:09;;;;;;;1.50;0.90;;;;;;;17.69;56.85;97135.66;105278;1297;25268;-80
2022/10/26 10:11:43;;;;;;;1.90;1.10;;;;;;;17.74;55.97;97141.00;105174;1299;22500;-80
2022/10/26 10:14:17;;;;;;;1.90;0.80;;;;;;;17.79;55.60;97143.45;105180;1304;22557;-80
2022/10/26 10:16:58;;;;;;;2.90;1.00;;;;;;;17.72;55.16;97139.87;105185;1298;22481;-80
2022/10/26 10:19:31;;;;;;;0.80;0.60;;;;;;;17.79;55.08;97141.23;105192;1296;22479;-80
2022/10/26 10:22:09;;;;;;;2.20;1.00;;;;;;;17.91;55.65;97141.85;105165;1297;25293;-80
2022/10/26 10:24:43;;;;;;;3.40;1.30;;;;;;;18.13;55.66;97138.20;105158;1306;22900;-80
2022/10/26 10:27:20;;;;;;;3.00;1.00;;;;;;;18.20;55.56;97139.77;105181;1281;22514;-80
2022/10/26 10:29:54;;;;;;;1.30;0.70;;;;;;;18.49;55.34;97135.73;105065;1291;22478;-80
2022/10/26 10:32:30;;;;;;;5.30;0.90;;;;;;;18.79;55.88;97134.02;105112;1281;22499;-80
2022/10/26 10:35:22;;;;;;;1.80;0.90;;;;;;;19.02;55.00;97133.00;105087;1297;22476;-81
2022/10/26 10:37:53;;;;;;;2.80;0.80;;;;;;;18.93;53.11;97125.49;105194;1284;25410;-81
2022/10/26 10:40:28;;;;;;;1.20;1.00;;;;;;;18.69;52.30;97124.98;105111;1284;25705;-80
2022/10/26 10:43:11;;;;;;;2.40;0.90;;;;;;;18.39;51.59;97122.07;105144;1285;23990;-80
2022/10/26 10:45:47;;;;;;;2.10;0.70;;;;;;;18.31;53.09;97121.75;105086;1281;25376;-80
2022/10/26 10:48:21;;;;;;;1.40;0.50;;;;;;;18.30;52.68;97119.79;105194;1291;23227;-80
2022/10/26 10:50:58;;;;;;;2.50;1.20;;;;;;;18.25;52.79;97120.19;105208;1306;22477;-80
2022/10/26 10:53:35;;;;;;;2.20;1.00;;;;;;;18.01;52.34;97115.33;105123;1283;22472;-80
2022/10/26 10:56:27;;;;;;;3.60;0.80;;;;;;;17.90;53.60;97113.29;105057;1306;22515;-80
2022/10/26 10:59:20;;;;;;;1.80;0.60;;;;;;;18.19;53.89;97120.70;105081;1306;26598;-80
2022/10/26 11:01:59;;;;;;;1.30;1.00;;;;;;;18.30;53.26;97122.20;105139;1304;22664;-80
2022/10/26 11:04:48;;;;;;;1.30;0.70;;;;;;;18.36;53.40;97121.31;105131;1291;22479;-80
2022/10/26 11:07:21;;;;;;;2.90;1.10;;;;;;;18.50;53.26;97118.05;105041;1284;22465;-80
2022/10/26 11:09:55;;;;;;;2.30;0.90;;;;;;;18.59;53.63;97119.00;105116;1305;25420;-80
2022/10/26 11:12:30;;;;;;;1.90;1.10;;;;;;;18.67;53.20;97120.84;105135;1304;23649;-80
2022/10/26 11:15:11;;;;;;;1.50;1.00;;;;;;;18.67;53.05;97123.70;105030;1306;22678;-80
2022/10/26 11:17:52;;;;;;;2.90;1.00;;;;;;;18.77;53.36;97121.29;105121;1306;25373;-80
2022/10/26 11:20:24;;;;;;;;;;;;;;;18.67;53.03;97120.53;105207;1298;22442;-80
2022/10/26 11:23:05;;;;;;;1.40;0.80;;;;;;;18.49;53.05;97122.09;105225;1290;24123;-80
2022/10/26 11:25:42;;;;;;;1.20;0.70;;;;;;;18.20;52.56;97123.51;105140;1289;23263;-79
2022/10/26 11:28:20;;;;;;;2.60;0.80;;;;;;;17.94;53.44;97123.06;105154;1297;22502;-80
2022/10/26 11:30:59;;;;;;;2.10;0.80;;;;;;;17.84;53.79;97125.42;105116;1290;25252;-80
2022/10/26 11:33:34;;;;;;;3.90;1.20;;;;;;;17.72;53.82;97127.38;105122;1284;22489;-79
2022/10/26 11:36:10;;;;;;;2.20;1.00;;;;;;;17.86;54.22;97129.08;105111;1305;22480;-79
2022/10/26 11:38:47;;;;;;;2.20;1.10;;;;;;;18.08;54.54;97128.10;105107;1291;22558;-80
2022/10/26 11:41:25;;;;;;;3.40;0.90;;;;;;;18.19;54.28;97130.34;105130;1282;22502;-80
2022/10/26 11:44:03;;;;;;;4.90;0.70;;;;;;;18.06;53.74;97132.08;105116;1305;22737;-80
2022/10/26 11:46:39;;;;;;;3.60;0.90;;;;;;;17.96;54.12;97130.45;105079;1306;40985;-80
2022/10/26 11:49:18;;;;;;;3.30;0.90;;;;;;;17.97;54.16;97130.38;105181;1306;25368;-79
2022/10/26 11:51:53;;;;;;;1.90;0.80;;;;;;;17.97;54.16;97131.17;105175;1298;22999;-79
2022/10/26 11:54:30;;;;;;;1.50;0.60;;;;;;;18.00;54.40;97134.04;105235;1305;22561;-79
2022/10/26 11:57:03;;;;;;;2.60;0.90;;;;;;;18.03;54.53;97132.88;105123;1304;22481;-79
2022/10/26 11:59:40;;;;;;;2.10;0.90;;;;;;;18.19;54.52;97135.10;105190;1285;23194;-79
2022/10/26 12:02:20;;;;;;;3.00;1.10;;;;;;;18.20;54.49;97136.08;105228;1305;22963;-79
2022/10/26 12:05:00;;;;;;;2.80;1.30;;;;;;;18.32;54.95;97137.00;105199;1304;22818;-79